Time;durP1;ratioP1;P1;durP2;ratioP2;P2;SDS_P1;SDS_P2;PMS_P1;PMS_P2;Temp;Humidity;BMP_temperature;BMP_pressure;BME280_temperature;BME280_humidity;BME280_pressure;Samples;Min_cycle;Max_cycle;Signal;HPM_P1;HPM_P2
2023/05/03 00:00:35;;;;;;;1999.90;999.90;;;7.70;99.90;;;;;;5095160;28;20032;-70
2023/05/03 00:03:05;;;;;;;1999.90;999.90;;;7.70;99.90;;;;;;5095197;28;20025;-70
2023/05/03 00:05:31;;;;;;;1999.90;999.90;;;7.80;99.90;;;;;;5076461;28;20033;-70
2023/05/03 00:07:57;;;;;;;1999.90;999.90;;;7.80;99.90;;;;;;5094308;28;20024;-70
2023/05/03 00:10:23;;;;;;;1999.90;999.90;;;7.70;99.90;;;;;;5094808;28;20047;-70
2023/05/03 00:12:48;;;;;;;1999.90;999.90;;;7.70;99.90;;;;;;5094846;28;20035;-71
2023/05/03 00:15:14;;;;;;;1999.90;999.90;;;7.70;99.90;;;;;;5094598;28;20056;-72
2023/05/03 00:17:40;;;;;;;1999.90;999.90;;;7.60;99.90;;;;;;5094521;28;20063;-72
2023/05/03 00:20:06;;;;;;;1999.90;999.90;;;7.60;99.90;;;;;;5094554;28;20032;-72
2023/05/03 00:22:32;;;;;;;1999.90;999.90;;;7.60;99.90;;;;;;5094864;28;20508;-72
2023/05/03 00:24:59;;;;;;;1999.90;999.90;;;7.60;99.90;;;;;;5076008;28;20135;-72
2023/05/03 00:27:24;;;;;;;1999.90;999.90;;;7.60;99.90;;;;;;5094784;28;20029;-72
2023/05/03 00:29:53;;;;;;;1999.90;999.90;;;7.50;99.90;;;;;;5094029;28;20044;-73
2023/05/03 00:32:21;;;;;;;1999.90;999.90;;;7.50;99.90;;;;;;5094329;28;20029;-72
2023/05/03 00:34:53;;;;;;;1999.90;999.90;;;7.50;99.90;;;;;;5094290;28;20029;-72
2023/05/03 00:37:19;;;;;;;1999.90;999.90;;;7.50;99.90;;;;;;5094846;28;20548;-72
2023/05/03 00:39:45;;;;;;;1999.90;999.90;;;7.50;99.90;;;;;;5075944;28;20048;-72
2023/05/03 00:42:10;;;;;;;1999.90;999.90;;;7.40;99.90;;;;;;5094323;28;20036;-72
2023/05/03 00:44:36;;;;;;;1999.90;999.90;;;7.40;99.90;;;;;;5094191;28;20036;-72
2023/05/03 00:47:02;;;;;;;1999.90;999.90;;;7.40;99.90;;;;;;5094326;28;20028;-71
2023/05/03 00:49:27;;;;;;;1999.90;999.90;;;7.40;99.90;;;;;;5094158;28;20505;-72
2023/05/03 00:51:53;;;;;;;1999.90;999.90;;;7.40;99.90;;;;;;5094377;28;20103;-72
2023/05/03 00:54:19;;;;;;;1999.90;999.90;;;7.40;99.90;;;;;;5094004;28;20028;-71
2023/05/03 00:56:45;;;;;;;1999.90;999.90;;;7.40;99.90;;;;;;5097353;28;21020;-72
2023/05/03 00:59:11;;;;;;;1999.90;999.90;;;7.30;99.90;;;;;;5079279;28;20041;-72
2023/05/03 01:01:37;;;;;;;1999.90;999.90;;;7.30;99.90;;;;;;5097743;28;20031;-72
2023/05/03 01:04:04;;;;;;;1999.90;999.90;;;7.30;99.90;;;;;;5079292;28;20032;-71
2023/05/03 01:06:36;;;;;;;1999.90;999.90;;;7.30;99.90;;;;;;5097848;28;20098;-72
2023/05/03 01:09:16;;;;;;;1999.90;999.90;;;7.30;99.90;;;;;;5097006;28;20040;-71
2023/05/03 01:12:13;;;;;;;1999.90;999.90;;;7.30;99.90;;;;;;5079428;28;20028;-72
2023/05/03 01:14:56;;;;;;;1999.90;999.90;;;7.30;99.90;;;;;;5079108;28;20132;-72
2023/05/03 01:17:31;;;;;;;1999.90;999.90;;;7.20;99.90;;;;;;5097698;28;20090;-71
2023/05/03 01:20:09;;;;;;;1999.90;999.90;;;7.20;99.90;;;;;;5096046;28;20063;-72
2023/05/03 01:22:37;;;;;;;1999.90;999.90;;;7.20;99.90;;;;;;5079224;28;20024;-72
2023/05/03 01:25:08;;;;;;;1999.90;999.90;;;7.10;99.90;;;;;;5097034;28;20112;-72
2023/05/03 01:27:35;;;;;;;1999.90;999.90;;;7.10;99.90;;;;;;5097597;28;20488;-72
2023/05/03 01:30:06;;;;;;;1999.90;999.90;;;7.00;99.90;;;;;;5078436;28;20044;-72
2023/05/03 01:32:35;;;;;;;1999.90;999.90;;;7.00;99.90;;;;;;5079019;28;20063;-71
2023/05/03 01:35:10;;;;;;;1999.90;999.90;;;6.90;99.90;;;;;;5097032;28;20036;-71
2023/05/03 01:37:37;;;;;;;1999.90;999.90;;;6.90;99.90;;;;;;5097441;28;20163;-71
2023/05/03 01:40:06;;;;;;;1999.90;999.90;;;6.90;99.90;;;;;;5078743;28;20041;-72
2023/05/03 01:42:49;;;;;;;1999.90;999.90;;;6.80;99.90;;;;;;5096760;28;20744;-71
2023/05/03 01:45:14;;;;;;;1999.90;999.90;;;6.80;99.90;;;;;;5097029;28;20044;-71
2023/05/03 01:47:40;;;;;;;1999.90;999.90;;;6.80;99.90;;;;;;5097337;28;20051;-71
2023/05/03 01:50:06;;;;;;;1999.90;999.90;;;6.80;99.90;;;;;;5097134;28;20032;-72
2023/05/03 01:52:32;;;;;;;1999.90;999.90;;;6.80;99.90;;;;;;5097061;28;20492;-72
2023/05/03 01:54:58;;;;;;;1999.90;999.90;;;6.80;99.90;;;;;;5078452;28;20623;-71
2023/05/03 01:57:24;;;;;;;1999.90;999.90;;;6.70;99.90;;;;;;5078273;28;20812;-71
2023/05/03 01:59:50;;;;;;;1999.90;999.90;;;6.70;99.90;;;;;;5077753;28;20033;-71
2023/05/03 02:02:15;;;;;;;1999.90;999.90;;;6.70;99.90;;;;;;5096566;28;20167;-72
2023/05/03 02:04:41;;;;;;;1999.90;999.90;;;6.70;99.90;;;;;;5096594;28;20086;-71
2023/05/03 02:07:07;;;;;;;1999.90;999.90;;;6.70;99.90;;;;;;5077834;28;20035;-72
2023/05/03 02:09:32;;;;;;;1999.90;999.90;;;6.70;99.90;;;;;;5077885;28;20046;-72
2023/05/03 02:11:58;;;;;;;1999.90;999.90;;;6.80;99.90;;;;;;5096675;28;20025;-71
2023/05/03 02:14:23;;;;;;;1999.90;999.90;;;6.90;99.90;;;;;;5096176;28;20035;-71
2023/05/03 02:16:49;;;;;;;1999.90;999.90;;;7.00;99.90;;;;;;5096743;28;20095;-72
2023/05/03 02:19:14;;;;;;;1999.90;999.90;;;7.10;99.90;;;;;;5096445;28;20112;-72
2023/05/03 02:21:40;;;;;;;1999.90;999.90;;;7.20;99.90;;;;;;5096537;28;20032;-72
2023/05/03 02:24:06;;;;;;;1999.90;999.90;;;7.20;99.90;;;;;;5096239;28;20032;-72
2023/05/03 02:26:31;;;;;;;1999.90;999.90;;;7.20;99.90;;;;;;5096814;28;20097;-71
2023/05/03 02:28:57;;;;;;;1999.90;999.90;;;7.20;99.90;;;;;;5078044;28;20575;-71
2023/05/03 02:31:26;;;;;;;1999.90;999.90;;;7.10;99.90;;;;;;5096671;28;20040;-72
2023/05/03 02:33:51;;;;;;;1999.90;999.90;;;7.10;99.90;;;;;;5096310;28;20035;-72
2023/05/03 02:36:17;;;;;;;1999.90;999.90;;;7.10;99.90;;;;;;5077782;28;20448;-72
2023/05/03 02:38:42;;;;;;;1999.90;999.90;;;7.10;99.90;;;;;;5096409;28;20037;-71
2023/05/03 02:41:08;;;;;;;1999.90;999.90;;;7.10;99.90;;;;;;5095978;28;20032;-72
2023/05/03 02:43:33;;;;;;;1999.90;999.90;;;7.20;99.90;;;;;;5096396;28;20031;-72
2023/05/03 02:45:59;;;;;;;1999.90;999.90;;;7.20;99.90;;;;;;5095960;28;20078;-71
2023/05/03 02:48:24;;;;;;;1999.90;999.90;;;7.30;99.90;;;;;;5096068;28;20032;-72
2023/05/03 02:50:50;;;;;;;1999.90;999.90;;;7.30;99.90;;;;;;5095848;28;20036;-72
2023/05/03 02:53:15;;;;;;;1999.90;999.90;;;7.30;99.90;;;;;;5096069;28;20036;-72
2023/05/03 02:55:42;;;;;;;1999.90;999.90;;;7.30;99.90;;;;;;5077401;28;20769;-72
2023/05/03 02:58:08;;;;;;;1999.90;999.90;;;7.30;99.90;;;;;;5096181;28;20041;-71
2023/05/03 03:00:34;;;;;;;1999.90;999.90;;;7.20;99.90;;;;;;5095589;28;20028;-72
2023/05/03 03:03:00;;;;;;;1999.90;999.90;;;7.20;99.90;;;;;;5077753;28;20032;-71
2023/05/03 03:05:25;;;;;;;1999.90;999.90;;;7.10;99.90;;;;;;5095828;28;20497;-71
2023/05/03 03:07:51;;;;;;;1999.90;999.90;;;7.20;99.90;;;;;;5095522;28;20127;-72
2023/05/03 03:10:16;;;;;;;1999.90;999.90;;;7.10;99.90;;;;;;5095764;28;20508;-72
2023/05/03 03:12:42;;;;;;;1999.90;999.90;;;7.10;99.90;;;;;;5095911;28;20032;-71
2023/05/03 03:15:08;;;;;;;1999.90;999.90;;;7.10;99.90;;;;;;5077098;28;20029;-71
2023/05/03 03:17:37;;;;;;;1999.90;999.90;;;7.00;99.90;;;;;;5095164;28;20032;-72
2023/05/03 03:20:05;;;;;;;1999.90;999.90;;;7.00;99.90;;;;;;5095119;28;20118;-71
2023/05/03 03:22:30;;;;;;;1999.90;999.90;;;6.90;99.90;;;;;;5095532;28;20391;-72
2023/05/03 03:24:56;;;;;;;1999.90;999.90;;;6.90;99.90;;;;;;5095017;28;20139;-73
2023/05/03 03:27:22;;;;;;;1999.90;999.90;;;6.90;99.90;;;;;;5095820;28;20779;-72
2023/05/03 03:29:48;;;;;;;1999.90;999.90;;;7.00;99.90;;;;;;5094998;28;20425;-72
2023/05/03 03:32:14;;;;;;;1999.90;999.90;;;6.80;99.90;;;;;;5095496;28;20032;-72
2023/05/03 03:34:39;;;;;;;1999.90;999.90;;;6.70;99.90;;;;;;5095281;28;20503;-72
2023/05/03 03:37:05;;;;;;;1999.90;999.90;;;6.60;99.90;;;;;;5095365;28;20102;-72
2023/05/03 03:39:31;;;;;;;1999.90;999.90;;;6.60;99.90;;;;;;5095219;28;20428;-72
2023/05/03 03:41:56;;;;;;;1999.90;999.90;;;6.60;99.90;;;;;;5095365;28;20457;-72
2023/05/03 03:44:22;;;;;;;1999.90;999.90;;;6.50;99.90;;;;;;5095252;28;20403;-72
2023/05/03 03:46:47;;;;;;;1999.90;999.90;;;6.40;99.90;;;;;;5095155;28;20060;-73
2023/05/03 03:49:13;;;;;;;1999.90;999.90;;;6.40;99.90;;;;;;5095067;28;20094;-72
2023/05/03 03:51:38;;;;;;;1999.90;999.90;;;6.50;99.90;;;;;;5076811;28;20029;-72
2023/05/03 03:54:04;;;;;;;1999.90;999.90;;;6.40;99.90;;;;;;5095032;28;20032;-72
2023/05/03 03:56:30;;;;;;;1999.90;999.90;;;6.40;99.90;;;;;;5095282;28;20040;-72
2023/05/03 03:58:55;;;;;;;1999.90;999.90;;;6.30;99.90;;;;;;5095131;28;20045;-72
2023/05/03 04:01:21;;;;;;;1999.90;999.90;;;6.30;99.90;;;;;;5095213;28;20055;-72
2023/05/03 04:03:46;;;;;;;1999.90;999.90;;;6.30;99.90;;;;;;5094872;28;20040;-72
2023/05/03 04:06:12;;;;;;;1999.90;999.90;;;6.40;99.90;;;;;;5094824;28;20683;-72
2023/05/03 04:08:37;;;;;;;1999.90;999.90;;;6.30;99.90;;;;;;5094970;28;20470;-72
2023/05/03 04:11:08;;;;;;;1999.90;999.90;;;6.30;99.90;;;;;;5094606;28;20032;-72
2023/05/03 04:13:33;;;;;;;1999.90;999.90;;;6.30;99.90;;;;;;5094442;28;20028;-72
2023/05/03 04:16:00;;;;;;;1999.90;999.90;;;6.30;99.90;;;;;;5094196;28;20501;-72
2023/05/03 04:18:25;;;;;;;1999.90;999.90;;;6.30;99.90;;;;;;5095003;28;20033;-72
2023/05/03 04:20:51;;;;;;;1999.90;999.90;;;6.20;99.90;;;;;;5094878;28;20032;-73
2023/05/03 04:23:16;;;;;;;1999.90;999.90;;;6.20;99.90;;;;;;5094929;28;20077;-73
2023/05/03 04:25:45;;;;;;;1999.90;999.90;;;6.20;99.90;;;;;;5094526;28;20433;-73
2023/05/03 04:28:12;;;;;;;1999.90;999.90;;;6.30;99.90;;;;;;5094415;28;20029;-74
2023/05/03 04:30:38;;;;;;;1999.90;999.90;;;6.30;99.90;;;;;;5093640;28;20032;-73
2023/05/03 04:33:03;;;;;;;1999.90;999.90;;;6.30;99.90;;;;;;5094289;28;20046;-73
2023/05/03 04:35:29;;;;;;;1999.90;999.90;;;6.30;99.90;;;;;;5094125;28;20044;-73
2023/05/03 04:37:55;;;;;;;1999.90;999.90;;;6.30;99.90;;;;;;5094512;28;20037;-73
2023/05/03 04:40:21;;;;;;;1999.90;999.90;;;6.30;99.90;;;;;;5094443;28;20028;-73
2023/05/03 04:42:47;;;;;;;1999.90;999.90;;;6.30;99.90;;;;;;5094158;28;20029;-73
2023/05/03 04:45:13;;;;;;;1999.90;999.90;;;6.30;99.90;;;;;;5094270;28;20520;-73
2023/05/03 04:47:39;;;;;;;1999.90;999.90;;;6.40;99.90;;;;;;5094439;28;20024;-73
2023/05/03 04:50:06;;;;;;;1999.90;999.90;;;6.50;99.90;;;;;;5094154;28;20048;-73
2023/05/03 04:52:32;;;;;;;1999.90;999.90;;;6.50;99.90;;;;;;5094407;28;20402;-73
2023/05/03 04:54:57;;;;;;;1999.90;999.90;;;6.60;99.90;;;;;;5094213;28;20041;-73
2023/05/03 04:57:23;;;;;;;1999.90;999.90;;;6.60;99.90;;;;;;5094114;28;20098;-74
2023/05/03 04:59:49;;;;;;;1999.90;999.90;;;6.60;99.90;;;;;;5094143;28;20064;-73
2023/05/03 05:02:14;;;;;;;1999.90;999.90;;;6.70;99.90;;;;;;5094462;28;20486;-73
2023/05/03 05:04:40;;;;;;;1999.90;999.90;;;6.80;99.90;;;;;;5094133;28;20032;-72
2023/05/03 05:07:06;;;;;;;1999.90;999.90;;;6.80;99.90;;;;;;5094440;28;20036;-73
2023/05/03 05:09:32;;;;;;;1999.90;999.90;;;6.90;99.90;;;;;;5090160;28;20048;-74
2023/05/03 05:11:57;;;;;;;1999.90;999.90;;;6.90;99.90;;;;;;5083738;28;20390;-73
2023/05/03 05:14:25;;;;;;;1999.90;999.90;;;7.00;99.90;;;;;;5086878;28;20044;-73
2023/05/03 05:16:51;;;;;;;1999.90;999.90;;;7.10;99.90;;;;;;5075911;28;20564;-76
2023/05/03 05:19:16;;;;;;;1999.90;999.90;;;7.20;99.90;;;;;;5085890;28;20045;-72
2023/05/03 05:21:42;;;;;;;1999.90;999.90;;;7.20;99.90;;;;;;5072925;28;20029;-72
2023/05/03 05:24:07;;;;;;;1999.90;999.90;;;7.30;99.90;;;;;;5074064;28;20086;-72
2023/05/03 05:26:33;;;;;;;1999.90;999.90;;;7.40;99.90;;;;;;5076264;28;20037;-71
2023/05/03 05:29:02;;;;;;;1999.90;999.90;;;7.40;99.90;;;;;;5072832;28;20120;-72
2023/05/03 05:31:28;;;;;;;1999.90;999.90;;;7.50;99.90;;;;;;5073635;28;20082;-72
2023/05/03 05:33:53;;;;;;;1999.90;999.90;;;7.60;99.90;;;;;;5073204;28;20110;-72
2023/05/03 05:36:19;;;;;;;1999.90;999.90;;;7.60;99.90;;;;;;5073776;28;20087;-72
2023/05/03 05:38:45;;;;;;;1999.90;999.90;;;7.70;99.90;;;;;;5073329;28;20036;-72
2023/05/03 05:41:10;;;;;;;1999.90;999.90;;;7.80;99.90;;;;;;5074236;28;20033;-72
2023/05/03 05:43:36;;;;;;;1999.90;999.90;;;7.80;99.90;;;;;;5076858;28;20048;-72
2023/05/03 05:46:02;;;;;;;1999.90;999.90;;;7.90;99.90;;;;;;5076483;28;20057;-72
2023/05/03 05:48:28;;;;;;;1999.90;999.90;;;7.90;99.90;;;;;;5076888;28;20506;-72
2023/05/03 05:50:53;;;;;;;1999.90;999.90;;;8.00;99.90;;;;;;5076367;28;20051;-72
2023/05/03 05:53:19;;;;;;;1999.90;999.90;;;8.00;99.90;;;;;;5076882;28;20461;-75
2023/05/03 05:55:44;;;;;;;1999.90;999.90;;;8.10;99.90;;;;;;5076325;28;20083;-72
2023/05/03 05:58:11;;;;;;;1999.90;999.90;;;8.20;99.90;;;;;;5076172;28;20902;-75
2023/05/03 06:00:37;;;;;;;1999.90;999.90;;;8.20;99.90;;;;;;5076471;28;20492;-73
2023/05/03 06:03:04;;;;;;;1999.90;999.90;;;8.30;99.90;;;;;;5076713;28;20112;-73
2023/05/03 06:05:30;;;;;;;1999.90;999.90;;;8.30;99.90;;;;;;5076131;28;20024;-73
2023/05/03 06:07:55;;;;;;;1999.90;999.90;;;8.40;99.90;;;;;;5076561;28;20475;-72
2023/05/03 06:10:21;;;;;;;1999.90;999.90;;;8.50;99.90;;;;;;5076109;28;20518;-73
2023/05/03 06:12:46;;;;;;;1999.90;999.90;;;8.60;99.90;;;;;;5076528;28;20505;-73
2023/05/03 06:15:12;;;;;;;1999.90;999.90;;;8.60;99.90;;;;;;5074621;28;20526;-73
2023/05/03 06:17:37;;;;;;;1999.90;999.90;;;8.70;99.90;;;;;;5076829;28;20110;-73
2023/05/03 06:20:03;;;;;;;1999.90;999.90;;;8.80;99.90;;;;;;5076661;28;20033;-74
2023/05/03 06:22:29;;;;;;;1999.90;999.90;;;8.80;99.90;;;;;;5076401;28;20091;-72
2023/05/03 06:24:55;;;;;;;1999.90;999.90;;;8.90;99.90;;;;;;5075983;28;20044;-73
2023/05/03 06:27:20;;;;;;;1999.90;999.90;;;8.90;99.90;;;;;;5076512;28;20025;-73
2023/05/03 06:29:48;;;;;;;1999.90;999.90;;;9.00;99.90;;;;;;5075726;28;20040;-74
2023/05/03 06:32:14;;;;;;;1999.90;999.90;;;9.10;99.90;;;;;;5076812;28;20029;-75
2023/05/03 06:34:39;;;;;;;1999.90;999.90;;;9.20;99.90;;;;;;5075988;28;20116;-75
2023/05/03 06:37:05;;;;;;;1999.90;999.90;;;9.30;99.90;;;;;;5074657;28;20029;-74
2023/05/03 06:39:31;;;;;;;1999.90;999.90;;;9.40;99.90;;;;;;5076142;28;20040;-75
2023/05/03 06:41:56;;;;;;;1999.90;999.90;;;9.50;99.90;;;;;;5075797;28;20067;-74
2023/05/03 06:44:22;;;;;;;1999.90;999.90;;;9.60;99.90;;;;;;5075825;28;20091;-74
2023/05/03 06:46:48;;;;;;;1999.90;999.90;;;9.60;99.90;;;;;;5076033;28;20075;-75
2023/05/03 06:49:13;;;;;;;1999.90;999.90;;;9.70;99.90;;;;;;5075699;28;20045;-75
2023/05/03 06:51:39;;;;;;;1999.90;999.90;;;9.80;99.90;;;;;;5074376;28;20037;-75
2023/05/03 06:54:08;;;;;;;1999.90;999.90;;;10.00;99.90;;;;;;5075419;28;20406;-75
2023/05/03 06:56:34;;;;;;;1999.90;999.90;;;10.20;99.90;;;;;;5057211;28;20482;-74
2023/05/03 06:59:00;;;;;;;1999.90;999.90;;;10.30;99.90;;;;;;5075751;28;20037;-75
2023/05/03 07:01:27;;;;;;;1999.90;999.90;;;10.30;99.90;;;;;;5075674;28;20087;-75
2023/05/03 07:03:52;;;;;;;1999.90;999.90;;;10.30;99.90;;;;;;5075397;28;20041;-74
2023/05/03 07:06:18;;;;;;;1999.90;999.90;;;10.40;99.90;;;;;;5075975;28;20032;-74
2023/05/03 07:08:44;;;;;;;1999.90;999.90;;;10.50;99.90;;;;;;5074357;28;20029;-74
2023/05/03 07:11:10;;;;;;;1999.90;999.90;;;10.60;99.90;;;;;;5074022;28;20041;-73
2023/05/03 07:13:35;;;;;;;1999.90;999.90;;;10.80;99.90;;;;;;5075279;28;20029;-75
2023/05/03 07:16:01;;;;;;;1999.90;999.90;;;10.80;99.90;;;;;;5074776;28;20080;-74
2023/05/03 07:18:26;;;;;;;1999.90;999.90;;;11.10;99.90;;;;;;5075453;28;20021;-74
2023/05/03 07:20:52;;;;;;;1999.90;999.90;;;11.20;99.90;;;;;;5056901;28;20387;-75
2023/05/03 07:23:18;;;;;;;1999.90;999.90;;;11.30;99.90;;;;;;5075247;28;20037;-75
2023/05/03 07:25:44;;;;;;;1999.90;999.90;;;11.40;99.90;;;;;;5073473;28;20040;-74
2023/05/03 07:28:10;;;;;;;1999.90;999.90;;;11.70;99.90;;;;;;5075427;28;20036;-75
2023/05/03 07:30:36;;;;;;;1999.90;999.90;;;11.80;99.90;;;;;;5074721;28;20418;-74
2023/05/03 07:33:02;;;;;;;1999.90;999.90;;;12.00;99.90;;;;;;5075014;28;20025;-74
2023/05/03 07:35:27;;;;;;;1999.90;999.90;;;12.00;99.90;;;;;;5075066;28;20037;-75
2023/05/03 07:37:53;;;;;;;1999.90;999.90;;;12.20;99.90;;;;;;5076523;28;20080;-75
2023/05/03 07:40:18;;;;;;;1999.90;999.90;;;12.20;99.90;;;;;;5074724;28;20483;-75
2023/05/03 07:42:45;;;;;;;1999.90;999.90;;;12.50;99.90;;;;;;5075268;28;20029;-74
2023/05/03 07:45:10;;;;;;;1999.90;999.90;;;12.60;99.90;;;;;;5074982;28;20037;-74
2023/05/03 07:47:38;;;;;;;1999.90;999.90;;;12.90;99.90;;;;;;5075290;28;20033;-75
2023/05/03 07:50:04;;;;;;;1999.90;999.90;;;12.80;99.90;;;;;;5074685;28;20081;-75
2023/05/03 07:52:37;;;;;;;1999.90;999.90;;;13.00;99.90;;;;;;5056544;28;20406;-75
2023/05/03 07:55:04;;;;;;;1999.90;999.90;;;13.20;99.90;;;;;;5073209;28;20040;-75
2023/05/03 07:57:29;;;;;;;1999.90;999.90;;;13.20;99.90;;;;;;5073344;28;20037;-75
2023/05/03 07:59:55;;;;;;;1999.90;999.90;;;13.30;99.90;;;;;;5074810;28;20029;-74
2023/05/03 08:02:21;;;;;;;1999.90;999.90;;;13.40;99.90;;;;;;5075086;28;20029;-75
2023/05/03 08:04:47;;;;;;;1999.90;999.90;;;13.60;99.90;;;;;;5074167;28;20060;-75
2023/05/03 08:07:13;;;;;;;1999.90;999.90;;;13.70;99.90;;;;;;5074499;28;20029;-75
2023/05/03 08:09:40;;;;;;;1999.90;999.90;;;13.90;99.90;;;;;;5074680;28;20025;-75
2023/05/03 08:12:06;;;;;;;1999.90;999.90;;;13.80;99.90;;;;;;5074568;28;20517;-75
2023/05/03 08:14:32;;;;;;;1999.90;999.90;;;13.80;99.90;;;;;;5074238;28;20060;-75
2023/05/03 08:16:58;;;;;;;1999.90;999.90;;;13.80;99.90;;;;;;5074711;28;20037;-75
2023/05/03 08:19:24;;;;;;;1999.90;999.90;;;13.90;99.90;;;;;;5074336;28;20037;-75
2023/05/03 08:21:53;;;;;;;1999.90;999.90;;;14.10;99.90;;;;;;5056101;28;20024;-75
2023/05/03 08:24:18;;;;;;;1999.90;999.90;;;14.10;99.90;;;;;;5074271;28;20036;-75
2023/05/03 08:26:45;;;;;;;1999.90;999.90;;;14.20;99.90;;;;;;5074473;28;20545;-75
2023/05/03 08:29:10;;;;;;;1999.90;999.90;;;14.30;99.90;;;;;;5073951;28;20072;-75
2023/05/03 08:31:36;;;;;;;1999.90;999.90;;;14.50;99.90;;;;;;5074283;28;20037;-75
2023/05/03 08:34:02;;;;;;;1999.90;999.90;;;14.60;99.90;;;;;;5074346;28;20033;-75
2023/05/03 08:36:28;;;;;;;1999.90;999.90;;;14.80;99.90;;;;;;5074504;28;20414;-75
2023/05/03 08:38:54;;;;;;;1999.90;999.90;;;15.10;99.90;;;;;;5074236;28;20048;-74
2023/05/03 08:41:29;;;;;;;1999.90;999.90;;;15.10;99.90;;;;;;5074367;28;20811;-76
2023/05/03 08:43:57;;;;;;;1999.90;999.90;;;15.20;99.90;;;;;;5073980;28;20036;-75
2023/05/03 08:46:24;;;;;;;1999.90;999.90;;;15.40;99.90;;;;;;5074219;28;20079;-75
2023/05/03 08:48:51;;;;;;;1999.90;999.90;;;15.60;99.90;;;;;;5073151;28;20037;-75
2023/05/03 08:51:18;;;;;;;1999.90;999.90;;;15.70;99.90;;;;;;5072414;28;20111;-74
2023/05/03 08:53:43;;;;;;;1999.90;999.90;;;15.70;99.90;;;;;;5074192;28;20111;-74
2023/05/03 08:56:11;;;;;;;1999.90;999.90;;;15.80;99.90;;;;;;5074001;28;20117;-74
2023/05/03 08:58:37;;;;;;;1999.90;999.90;;;15.80;99.90;;;;;;5073733;28;20037;-75
2023/05/03 09:01:07;;;;;;;1999.90;999.90;;;15.80;99.90;;;;;;5072420;28;20068;-75
2023/05/03 09:03:34;;;;;;;1999.90;999.90;;;15.50;99.90;;;;;;5074187;28;20083;-75
2023/05/03 09:06:03;;;;;;;1999.90;999.90;;;15.80;99.90;;;;;;5073532;28;20099;-74
2023/05/03 09:08:30;;;;;;;1999.90;999.90;;;16.00;99.90;;;;;;5073772;28;20068;-75
2023/05/03 09:10:56;;;;;;;1999.90;999.90;;;16.30;99.90;;;;;;5071903;28;20124;-75
2023/05/03 09:13:31;;;;;;;1999.90;999.90;;;16.40;99.90;;;;;;5073645;28;20033;-75
2023/05/03 09:15:57;;;;;;;1999.90;999.90;;;16.50;99.90;;;;;;5073692;28;20028;-74
2023/05/03 09:18:23;;;;;;;1999.90;999.90;;;16.60;99.90;;;;;;5077371;28;20040;-74
2023/05/03 09:20:52;;;;;;;1999.90;999.90;;;16.80;99.90;;;;;;5077057;28;20040;-74
2023/05/03 09:23:30;;;;;;;1999.90;999.90;;;16.60;99.90;;;;;;5077290;28;20024;-75
2023/05/03 09:25:57;;;;;;;1999.90;999.90;;;16.80;99.90;;;;;;5077315;28;20029;-75
2023/05/03 09:28:22;;;;;;;1999.90;999.90;;;16.90;99.90;;;;;;5077044;28;20041;-75
2023/05/03 09:30:49;;;;;;;1999.90;999.90;;;17.10;99.10;;;;;;5076828;28;20037;-75
2023/05/03 09:33:20;;;;;;;1999.90;999.90;;;17.50;99.30;;;;;;5075840;28;20033;-73
2023/05/03 09:35:56;;;;;;;1999.90;999.90;;;17.90;98.00;;;;;;5075481;28;20498;-74
2023/05/03 09:38:43;;;;;;;1999.90;999.90;;;18.30;99.70;;;;;;5076779;28;20037;-75
2023/05/03 09:41:09;;;;;;;1999.90;999.90;;;18.70;97.10;;;;;;5076823;28;20043;-75
2023/05/03 09:43:46;;;;;;;1999.90;999.90;;;18.50;96.10;;;;;;5076812;28;20029;-74
2023/05/03 09:46:12;;;;;;;1999.90;999.90;;;18.40;96.40;;;;;;5077031;28;20107;-74
2023/05/03 09:48:38;;;;;;;1999.90;999.90;;;18.00;96.40;;;;;;5076471;28;20052;-74
2023/05/03 09:51:05;;;;;;;1999.90;999.90;;;18.10;97.10;;;;;;5076791;28;20083;-75
2023/05/03 09:53:35;;;;;;;1999.90;999.90;;;18.50;96.50;;;;;;5075504;28;20100;-74
2023/05/03 09:56:11;;;;;;;1999.90;999.90;;;18.60;95.10;;;;;;5076297;28;20037;-75
2023/05/03 09:58:38;;;;;;;1999.90;999.90;;;18.60;96.00;;;;;;5076891;28;20029;-74
2023/05/03 10:01:04;;;;;;;1999.90;999.90;;;18.50;95.00;;;;;;5076339;28;20506;-74
2023/05/03 10:03:36;;;;;;;1999.90;999.90;;;18.60;95.50;;;;;;5076660;28;20520;-73
2023/05/03 10:06:05;;;;;;;1999.90;999.90;;;18.70;95.60;;;;;;5076320;28;20037;-75
2023/05/03 10:08:39;;;;;;;1999.90;999.90;;;18.90;94.30;;;;;;5076489;28;20059;-74
2023/05/03 10:11:07;;;;;;;1999.90;999.90;;;19.10;94.50;;;;;;5076419;28;20029;-75
2023/05/03 10:13:34;;;;;;;1999.90;999.90;;;19.10;94.70;;;;;;5076326;28;20037;-74
2023/05/03 10:16:08;;;;;;;1999.90;999.90;;;19.30;93.20;;;;;;5076094;28;20025;-74
2023/05/03 10:18:38;;;;;;;1999.90;999.90;;;19.60;92.90;;;;;;5076412;28;20514;-73
2023/05/03 10:21:11;;;;;;;1999.90;999.90;;;19.40;93.00;;;;;;5076876;28;20033;-74
2023/05/03 10:24:08;;;;;;;1999.90;999.90;;;19.30;93.10;;;;;;5076921;28;20494;-75
2023/05/03 10:26:33;;;;;;;1999.90;999.90;;;19.40;92.80;;;;;;5076062;28;20036;-75
2023/05/03 10:28:59;;;;;;;1999.90;999.90;;;19.60;92.80;;;;;;5075162;28;20048;-75
2023/05/03 10:31:44;;;;;;;1999.90;999.90;;;20.00;91.60;;;;;;5076136;28;20075;-74
2023/05/03 10:34:20;;;;;;;1999.90;999.90;;;19.70;91.40;;;;;;5075784;28;20496;-75
2023/05/03 10:36:49;;;;;;;1999.90;999.90;;;19.80;92.30;;;;;;5074770;28;20410;-75
2023/05/03 10:39:15;;;;;;;1999.90;999.90;;;19.80;90.90;;;;;;5075837;28;20033;-78
2023/05/03 10:41:41;;;;;;;1999.90;999.90;;;19.80;92.60;;;;;;5075881;28;20040;-73
2023/05/03 10:44:33;;;;;;;1999.90;999.90;;;19.60;90.90;;;;;;5075940;28;20037;-78
2023/05/03 10:47:12;;;;;;;1999.90;999.90;;;19.30;91.20;;;;;;5075957;28;20029;-75
2023/05/03 10:49:38;;;;;;;1999.90;999.90;;;19.60;91.00;;;;;;5074631;28;20155;-76
2023/05/03 10:52:39;;;;;;;1999.90;999.90;;;19.70;91.50;;;;;;5075709;28;20493;-76
2023/05/03 10:55:23;;;;;;;1999.90;999.90;;;20.30;90.00;;;;;;5073967;28;20040;-73
2023/05/03 10:57:53;;;;;;;1999.90;999.90;;;20.40;89.40;;;;;;5076278;28;20065;-74
2023/05/03 11:00:38;;;;;;;1999.90;999.90;;;20.90;87.10;;;;;;5075778;28;20033;-73
2023/05/03 11:03:33;;;;;;;1999.90;999.90;;;21.10;86.70;;;;;;5075642;28;20514;-73
2023/05/03 11:05:58;;;;;;;1999.90;999.90;;;20.70;85.70;;;;;;5074122;28;20040;-74
2023/05/03 11:08:36;;;;;;;1999.90;999.90;;;20.80;84.80;;;;;;5084972;28;20028;-75
2023/05/03 11:11:08;;;;;;;1999.90;999.90;;;21.00;83.60;;;;;;5077383;28;20036;-75
2023/05/03 11:13:35;;;;;;;1999.90;999.90;;;21.10;85.70;;;;;;5096020;28;20058;-75
2023/05/03 11:16:02;;;;;;;1999.90;999.90;;;21.20;86.40;;;;;;5095526;28;20116;-75
2023/05/03 11:18:27;;;;;;;1999.90;999.90;;;21.20;83.60;;;;;;5096018;28;20465;-75
2023/05/03 11:20:53;;;;;;;1999.90;999.90;;;21.00;87.00;;;;;;5095607;28;20033;-74
2023/05/03 11:23:27;;;;;;;1999.90;999.90;;;20.40;87.80;;;;;;5095644;28;20490;-74
2023/05/03 11:25:53;;;;;;;1999.90;999.90;;;20.20;88.60;;;;;;5095294;28;20099;-74
2023/05/03 11:28:19;;;;;;;1999.90;999.90;;;20.00;89.30;;;;;;5095124;28;20031;-73
2023/05/03 11:30:45;;;;;;;1999.90;999.90;;;19.80;86.60;;;;;;5133505;22;20052;-81
2023/05/03 11:33:11;;;;;;;1999.90;999.90;;;19.80;89.70;;;;;;5099619;28;20043;-81
2023/05/03 11:35:37;;;;;;;1999.90;999.90;;;20.10;88.60;;;;;;5099447;28;20032;-81
2023/05/03 11:38:03;;;;;;;1999.90;999.90;;;20.30;86.70;;;;;;5096985;28;20089;-81
2023/05/03 11:40:28;;;;;;;1999.90;999.90;;;20.80;89.20;;;;;;5097512;28;20036;-81
2023/05/03 11:42:58;;;;;;;1999.90;999.90;;;21.00;85.10;;;;;;5099463;28;20040;-82
2023/05/03 11:45:45;;;;;;;1999.90;999.90;;;20.50;83.90;;;;;;5099347;28;20127;-81
2023/05/03 11:48:12;;;;;;;1999.90;999.90;;;20.40;86.90;;;;;;5099323;28;20803;-81
2023/05/03 11:50:55;;;;;;;1999.90;999.90;;;19.80;87.30;;;;;;5099617;28;20477;-82
2023/05/03 11:53:25;;;;;;;1999.90;999.90;;;20.00;90.10;;;;;;5099038;28;20181;-82
2023/05/03 11:55:53;;;;;;;1999.90;999.90;;;20.50;87.80;;;;;;5098826;28;20032;-81
2023/05/03 11:58:26;;;;;;;1999.90;999.90;;;20.50;89.00;;;;;;5117701;28;20088;-81
2023/05/03 12:00:53;;;;;;;1999.90;999.90;;;20.80;87.40;;;;;;5099084;28;20799;-82
2023/05/03 12:03:24;;;;;;;1999.90;999.90;;;21.10;88.00;;;;;;5097929;28;20037;-83
2023/05/03 12:05:51;;;;;;;1999.90;999.90;;;21.30;84.40;;;;;;5096708;28;20094;-78